sensor_id;sensor_type;location;lat;lon;timestamp;temperature;humidity
11748;DHT22;5931;48.832;9.072;2024-03-22T00:01:44;6.30;99.90
11748;DHT22;5931;48.832;9.072;2024-03-22T00:04:11;6.30;99.90
11748;DHT22;5931;48.832;9.072;2024-03-22T00:06:37;6.30;99.90
11748;DHT22;5931;48.832;9.072;2024-03-22T00:09:03;6.20;99.90
11748;DHT22;5931;48.832;9.072;2024-03-22T00:11:28;6.00;99.90
11748;DHT22;5931;48.832;9.072;2024-03-22T00:13:54;6.00;99.90
11748;DHT22;5931;48.832;9.072;2024-03-22T00:16:20;6.00;99.90
11748;DHT22;5931;48.832;9.072;2024-03-22T00:18:46;5.90;99.90
11748;DHT22;5931;48.832;9.072;2024-03-22T00:21:11;5.80;99.90
11748;DHT22;5931;48.832;9.072;2024-03-22T00:23:37;5.80;99.90
11748;DHT22;5931;48.832;9.072;2024-03-22T00:26:03;5.80;99.90
11748;DHT22;5931;48.832;9.072;2024-03-22T00:28:29;5.70;99.90
11748;DHT22;5931;48.832;9.072;2024-03-22T00:30:54;5.70;99.90
11748;DHT22;5931;48.832;9.072;2024-03-22T00:33:20;5.60;99.90
11748;DHT22;5931;48.832;9.072;2024-03-22T00:35:46;5.60;99.90
11748;DHT22;5931;48.832;9.072;2024-03-22T00:38:11;5.60;99.90
11748;DHT22;5931;48.832;9.072;2024-03-22T00:40:37;5.70;99.90
11748;DHT22;5931;48.832;9.072;2024-03-22T00:43:03;5.80;99.90
11748;DHT22;5931;48.832;9.072;2024-03-22T00:45:29;5.80;99.90
11748;DHT22;5931;48.832;9.072;2024-03-22T00:47:54;5.80;99.90
11748;DHT22;5931;48.832;9.072;2024-03-22T00:50:20;5.60;99.90
11748;DHT22;5931;48.832;9.072;2024-03-22T00:52:46;5.60;99.90
11748;DHT22;5931;48.832;9.072;2024-03-22T00:55:12;5.50;99.90
11748;DHT22;5931;48.832;9.072;2024-03-22T00:57:38;5.50;99.90
11748;DHT22;5931;48.832;9.072;2024-03-22T01:00:04;5.50;99.90
11748;DHT22;5931;48.832;9.072;2024-03-22T01:02:30;5.50;99.90
11748;DHT22;5931;48.832;9.072;2024-03-22T01:04:55;5.50;99.90
11748;DHT22;5931;48.832;9.072;2024-03-22T01:07:21;5.40;99.90
11748;DHT22;5931;48.832;9.072;2024-03-22T01:09:47;5.30;99.90
11748;DHT22;5931;48.832;9.072;2024-03-22T01:12:13;5.20;99.90
11748;DHT22;5931;48.832;9.072;2024-03-22T01:14:38;5.20;99.90
11748;DHT22;5931;48.832;9.072;2024-03-22T01:17:04;5.20;99.90
11748;DHT22;5931;48.832;9.072;2024-03-22T01:19:30;5.10;99.90
11748;DHT22;5931;48.832;9.072;2024-03-22T01:21:56;5.10;99.90
11748;DHT22;5931;48.832;9.072;2024-03-22T01:24:22;5.10;99.90
11748;DHT22;5931;48.832;9.072;2024-03-22T01:26:48;5.00;99.90
11748;DHT22;5931;48.832;9.072;2024-03-22T01:29:14;5.10;99.90
11748;DHT22;5931;48.832;9.072;2024-03-22T01:31:40;5.00;99.90
11748;DHT22;5931;48.832;9.072;2024-03-22T01:34:05;5.00;99.90
11748;DHT22;5931;48.832;9.072;2024-03-22T01:36:31;4.90;99.90
11748;DHT22;5931;48.832;9.072;2024-03-22T01:38:57;4.90;99.90
11748;DHT22;5931;48.832;9.072;2024-03-22T01:41:23;5.00;99.90
11748;DHT22;5931;48.832;9.072;2024-03-22T01:43:49;4.90;99.90
11748;DHT22;5931;48.832;9.072;2024-03-22T01:46:15;5.00;99.90
11748;DHT22;5931;48.832;9.072;2024-03-22T01:48:41;5.10;99.90
11748;DHT22;5931;48.832;9.072;2024-03-22T01:51:07;5.00;99.90
11748;DHT22;5931;48.832;9.072;2024-03-22T01:53:34;4.90;99.90
11748;DHT22;5931;48.832;9.072;2024-03-22T01:56:01;4.90;99.90
11748;DHT22;5931;48.832;9.072;2024-03-22T01:58:27;4.80;99.90
11748;DHT22;5931;48.832;9.072;2024-03-22T02:00:54;4.70;99.90
11748;DHT22;5931;48.832;9.072;2024-03-22T02:03:21;4.70;99.90
11748;DHT22;5931;48.832;9.072;2024-03-22T02:05:46;4.70;99.90
11748;DHT22;5931;48.832;9.072;2024-03-22T02:08:12;4.70;99.90
11748;DHT22;5931;48.832;9.072;2024-03-22T02:10:38;4.70;99.90
11748;DHT22;5931;48.832;9.072;2024-03-22T02:13:04;4.60;99.90
11748;DHT22;5931;48.832;9.072;2024-03-22T02:15:29;4.60;99.90
11748;DHT22;5931;48.832;9.072;2024-03-22T02:17:55;4.60;99.90
11748;DHT22;5931;48.832;9.072;2024-03-22T02:20:21;4.60;99.90
11748;DHT22;5931;48.832;9.072;2024-03-22T02:22:47;4.60;99.90
11748;DHT22;5931;48.832;9.072;2024-03-22T02:25:12;4.70;99.90
11748;DHT22;5931;48.832;9.072;2024-03-22T02:27:38;4.60;99.90
11748;DHT22;5931;48.832;9.072;2024-03-22T02:30:05;4.60;99.90
11748;DHT22;5931;48.832;9.072;2024-03-22T02:32:31;4.50;99.90
11748;DHT22;5931;48.832;9.072;2024-03-22T02:34:57;4.50;99.90
11748;DHT22;5931;48.832;9.072;2024-03-22T02:37:22;4.40;99.90
11748;DHT22;5931;48.832;9.072;2024-03-22T02:39:48;4.40;99.90
11748;DHT22;5931;48.832;9.072;2024-03-22T02:42:14;4.40;99.90
11748;DHT22;5931;48.832;9.072;2024-03-22T02:44:40;4.40;99.90
11748;DHT22;5931;48.832;9.072;2024-03-22T02:47:11;4.50;99.90
11748;DHT22;5931;48.832;9.072;2024-03-22T02:49:40;4.60;99.90
11748;DHT22;5931;48.832;9.072;2024-03-22T02:52:06;4.70;99.90
11748;DHT22;5931;48.832;9.072;2024-03-22T02:54:31;4.70;99.90
11748;DHT22;5931;48.832;9.072;2024-03-22T02:56:57;4.80;99.90
11748;DHT22;5931;48.832;9.072;2024-03-22T02:59:26;4.80;99.90
11748;DHT22;5931;48.832;9.072;2024-03-22T03:01:52;4.90;99.90
11748;DHT22;5931;48.832;9.072;2024-03-22T03:04:18;5.10;99.90
11748;DHT22;5931;48.832;9.072;2024-03-22T03:06:44;5.10;99.90
11748;DHT22;5931;48.832;9.072;2024-03-22T03:09:11;5.10;99.90
11748;DHT22;5931;48.832;9.072;2024-03-22T03:11:40;5.20;99.90
11748;DHT22;5931;48.832;9.072;2024-03-22T03:14:06;5.20;99.90
11748;DHT22;5931;48.832;9.072;2024-03-22T03:16:32;5.30;99.90
11748;DHT22;5931;48.832;9.072;2024-03-22T03:18:58;5.20;99.90
11748;DHT22;5931;48.832;9.072;2024-03-22T03:21:24;5.20;99.90
11748;DHT22;5931;48.832;9.072;2024-03-22T03:23:50;5.20;99.90
11748;DHT22;5931;48.832;9.072;2024-03-22T03:26:16;5.20;99.90
11748;DHT22;5931;48.832;9.072;2024-03-22T03:28:42;5.20;99.90
11748;DHT22;5931;48.832;9.072;2024-03-22T03:31:07;5.30;99.90
11748;DHT22;5931;48.832;9.072;2024-03-22T03:33:33;5.30;99.90
11748;DHT22;5931;48.832;9.072;2024-03-22T03:35:59;5.30;99.90
11748;DHT22;5931;48.832;9.072;2024-03-22T03:38:25;5.30;99.90
11748;DHT22;5931;48.832;9.072;2024-03-22T03:40:50;5.40;99.90
11748;DHT22;5931;48.832;9.072;2024-03-22T03:43:16;5.40;99.90
11748;DHT22;5931;48.832;9.072;2024-03-22T03:45:42;5.40;99.90
11748;DHT22;5931;48.832;9.072;2024-03-22T03:48:08;5.40;99.90
11748;DHT22;5931;48.832;9.072;2024-03-22T03:50:33;5.40;99.90
11748;DHT22;5931;48.832;9.072;2024-03-22T03:52:59;5.50;99.90
11748;DHT22;5931;48.832;9.072;2024-03-22T03:55:26;5.50;99.90
11748;DHT22;5931;48.832;9.072;2024-03-22T03:57:52;5.50;99.90
11748;DHT22;5931;48.832;9.072;2024-03-22T04:00:19;5.60;99.90
11748;DHT22;5931;48.832;9.072;2024-03-22T04:02:45;5.60;99.90
11748;DHT22;5931;48.832;9.072;2024-03-22T04:05:11;5.80;99.90
11748;DHT22;5931;48.832;9.072;2024-03-22T04:07:37;5.90;99.90
11748;DHT22;5931;48.832;9.072;2024-03-22T04:10:05;6.00;99.90
11748;DHT22;5931;48.832;9.072;2024-03-22T04:12:31;5.90;99.90
11748;DHT22;5931;48.832;9.072;2024-03-22T04:14:57;6.00;99.90
11748;DHT22;5931;48.832;9.072;2024-03-22T04:17:23;6.00;99.90
11748;DHT22;5931;48.832;9.072;2024-03-22T04:19:49;6.10;99.90
11748;DHT22;5931;48.832;9.072;2024-03-22T04:22:15;6.10;99.90
11748;DHT22;5931;48.832;9.072;2024-03-22T04:24:41;6.20;99.90
11748;DHT22;5931;48.832;9.072;2024-03-22T04:27:07;6.40;99.90
11748;DHT22;5931;48.832;9.072;2024-03-22T04:29:33;6.40;99.90
11748;DHT22;5931;48.832;9.072;2024-03-22T04:31:59;6.40;99.90
11748;DHT22;5931;48.832;9.072;2024-03-22T04:34:24;6.50;99.90
11748;DHT22;5931;48.832;9.072;2024-03-22T04:36:50;6.60;99.90
11748;DHT22;5931;48.832;9.072;2024-03-22T04:39:19;6.70;99.90
11748;DHT22;5931;48.832;9.072;2024-03-22T04:41:45;6.70;99.90
11748;DHT22;5931;48.832;9.072;2024-03-22T04:44:11;6.70;99.90
11748;DHT22;5931;48.832;9.072;2024-03-22T04:46:36;6.70;99.90
11748;DHT22;5931;48.832;9.072;2024-03-22T04:49:02;6.80;99.90
11748;DHT22;5931;48.832;9.072;2024-03-22T04:51:28;6.90;99.90
11748;DHT22;5931;48.832;9.072;2024-03-22T04:53:54;6.90;99.90
11748;DHT22;5931;48.832;9.072;2024-03-22T04:56:20;7.00;99.90
11748;DHT22;5931;48.832;9.072;2024-03-22T04:58:45;7.00;99.90
11748;DHT22;5931;48.832;9.072;2024-03-22T05:01:11;7.10;99.90
11748;DHT22;5931;48.832;9.072;2024-03-22T05:03:38;7.10;99.90
11748;DHT22;5931;48.832;9.072;2024-03-22T05:06:04;7.10;99.90
11748;DHT22;5931;48.832;9.072;2024-03-22T05:08:32;7.20;99.90
11748;DHT22;5931;48.832;9.072;2024-03-22T05:10:57;7.20;99.90
11748;DHT22;5931;48.832;9.072;2024-03-22T05:13:23;7.20;99.90
11748;DHT22;5931;48.832;9.072;2024-03-22T05:15:49;7.20;99.90
11748;DHT22;5931;48.832;9.072;2024-03-22T05:18:15;7.10;99.90
11748;DHT22;5931;48.832;9.072;2024-03-22T05:20:41;7.10;99.90
11748;DHT22;5931;48.832;9.072;2024-03-22T05:23:06;7.10;99.90
11748;DHT22;5931;48.832;9.072;2024-03-22T05:25:32;7.10;99.90
11748;DHT22;5931;48.832;9.072;2024-03-22T05:27:58;7.10;99.90
11748;DHT22;5931;48.832;9.072;2024-03-22T05:30:23;7.10;99.90
11748;DHT22;5931;48.832;9.072;2024-03-22T05:32:49;7.10;99.90
11748;DHT22;5931;48.832;9.072;2024-03-22T05:35:16;7.10;99.90
11748;DHT22;5931;48.832;9.072;2024-03-22T05:37:42;7.10;99.90
11748;DHT22;5931;48.832;9.072;2024-03-22T05:40:08;7.10;99.90
11748;DHT22;5931;48.832;9.072;2024-03-22T05:42:34;7.10;99.90
11748;DHT22;5931;48.832;9.072;2024-03-22T05:45:00;7.10;99.90
11748;DHT22;5931;48.832;9.072;2024-03-22T05:47:26;7.10;99.90
11748;DHT22;5931;48.832;9.072;2024-03-22T05:49:52;7.10;99.90
11748;DHT22;5931;48.832;9.072;2024-03-22T05:52:18;7.10;99.90
11748;DHT22;5931;48.832;9.072;2024-03-22T05:54:44;7.10;99.90
11748;DHT22;5931;48.832;9.072;2024-03-22T05:57:10;7.10;99.90
11748;DHT22;5931;48.832;9.072;2024-03-22T05:59:36;7.00;99.90
11748;DHT22;5931;48.832;9.072;2024-03-22T06:02:02;7.00;99.90
11748;DHT22;5931;48.832;9.072;2024-03-22T06:04:28;7.00;99.90
11748;DHT22;5931;48.832;9.072;2024-03-22T06:06:54;6.90;99.90
11748;DHT22;5931;48.832;9.072;2024-03-22T06:09:20;6.90;99.90
11748;DHT22;5931;48.832;9.072;2024-03-22T06:12:03;6.80;99.90
11748;DHT22;5931;48.832;9.072;2024-03-22T06:14:29;6.80;99.90
11748;DHT22;5931;48.832;9.072;2024-03-22T06:16:55;6.80;99.90
11748;DHT22;5931;48.832;9.072;2024-03-22T06:19:21;6.80;99.90
11748;DHT22;5931;48.832;9.072;2024-03-22T06:21:47;6.90;99.90
11748;DHT22;5931;48.832;9.072;2024-03-22T06:24:13;6.90;99.90
11748;DHT22;5931;48.832;9.072;2024-03-22T06:26:38;7.00;99.90
11748;DHT22;5931;48.832;9.072;2024-03-22T06:29:04;7.00;99.90
11748;DHT22;5931;48.832;9.072;2024-03-22T06:31:31;7.10;99.90
11748;DHT22;5931;48.832;9.072;2024-03-22T06:33:57;7.20;99.90
11748;DHT22;5931;48.832;9.072;2024-03-22T06:36:36;7.40;99.90
11748;DHT22;5931;48.832;9.072;2024-03-22T06:39:02;7.50;99.90
11748;DHT22;5931;48.832;9.072;2024-03-22T06:41:33;7.60;99.90
11748;DHT22;5931;48.832;9.072;2024-03-22T06:43:59;7.70;99.90
11748;DHT22;5931;48.832;9.072;2024-03-22T06:46:25;7.80;99.90
11748;DHT22;5931;48.832;9.072;2024-03-22T06:48:52;7.80;99.90
11748;DHT22;5931;48.832;9.072;2024-03-22T06:51:18;7.90;99.90
11748;DHT22;5931;48.832;9.072;2024-03-22T06:53:44;7.90;99.90
11748;DHT22;5931;48.832;9.072;2024-03-22T06:56:12;7.90;99.90
11748;DHT22;5931;48.832;9.072;2024-03-22T06:58:41;8.10;99.90
11748;DHT22;5931;48.832;9.072;2024-03-22T07:01:06;8.20;99.90
11748;DHT22;5931;48.832;9.072;2024-03-22T07:03:32;8.20;99.90
11748;DHT22;5931;48.832;9.072;2024-03-22T07:05:58;8.30;99.90
11748;DHT22;5931;48.832;9.072;2024-03-22T07:08:25;8.30;99.90
11748;DHT22;5931;48.832;9.072;2024-03-22T07:10:51;8.30;99.90
11748;DHT22;5931;48.832;9.072;2024-03-22T07:13:19;8.30;99.90
11748;DHT22;5931;48.832;9.072;2024-03-22T07:15:45;8.40;99.90
11748;DHT22;5931;48.832;9.072;2024-03-22T07:18:12;8.50;99.90
11748;DHT22;5931;48.832;9.072;2024-03-22T07:20:37;8.70;99.90
11748;DHT22;5931;48.832;9.072;2024-03-22T07:23:03;8.80;99.90
11748;DHT22;5931;48.832;9.072;2024-03-22T07:25:30;9.00;99.90
11748;DHT22;5931;48.832;9.072;2024-03-22T07:27:56;9.20;99.90
11748;DHT22;5931;48.832;9.072;2024-03-22T07:30:22;9.30;99.90
11748;DHT22;5931;48.832;9.072;2024-03-22T07:32:48;9.50;99.90
11748;DHT22;5931;48.832;9.072;2024-03-22T07:35:14;9.60;99.90
11748;DHT22;5931;48.832;9.072;2024-03-22T07:37:40;9.70;99.90
11748;DHT22;5931;48.832;9.072;2024-03-22T07:40:06;9.90;99.90
11748;DHT22;5931;48.832;9.072;2024-03-22T07:42:32;10.00;99.90
11748;DHT22;5931;48.832;9.072;2024-03-22T07:44:58;10.20;99.90
11748;DHT22;5931;48.832;9.072;2024-03-22T07:47:24;10.40;99.90
11748;DHT22;5931;48.832;9.072;2024-03-22T07:49:50;10.50;99.90
11748;DHT22;5931;48.832;9.072;2024-03-22T07:52:16;10.70;99.90
11748;DHT22;5931;48.832;9.072;2024-03-22T07:54:42;10.90;99.90
11748;DHT22;5931;48.832;9.072;2024-03-22T07:57:08;11.10;99.90
11748;DHT22;5931;48.832;9.072;2024-03-22T07:59:33;11.30;99.90
11748;DHT22;5931;48.832;9.072;2024-03-22T08:02:00;11.60;99.90
11748;DHT22;5931;48.832;9.072;2024-03-22T08:04:25;11.90;99.90
11748;DHT22;5931;48.832;9.072;2024-03-22T08:06:51;12.10;99.90
11748;DHT22;5931;48.832;9.072;2024-03-22T08:09:17;12.40;99.90
11748;DHT22;5931;48.832;9.072;2024-03-22T08:11:44;12.60;99.90
11748;DHT22;5931;48.832;9.072;2024-03-22T08:14:10;12.80;99.90
11748;DHT22;5931;48.832;9.072;2024-03-22T08:16:35;13.10;99.90
11748;DHT22;5931;48.832;9.072;2024-03-22T08:19:01;13.20;99.90
11748;DHT22;5931;48.832;9.072;2024-03-22T08:21:27;13.50;99.90
11748;DHT22;5931;48.832;9.072;2024-03-22T08:23:53;13.50;99.90
11748;DHT22;5931;48.832;9.072;2024-03-22T08:26:19;13.50;99.90
11748;DHT22;5931;48.832;9.072;2024-03-22T08:28:46;13.50;99.90
11748;DHT22;5931;48.832;9.072;2024-03-22T08:31:13;13.60;99.90
11748;DHT22;5931;48.832;9.072;2024-03-22T08:33:39;13.60;99.90
11748;DHT22;5931;48.832;9.072;2024-03-22T08:36:05;13.80;99.90
11748;DHT22;5931;48.832;9.072;2024-03-22T08:38:31;13.80;99.90
11748;DHT22;5931;48.832;9.072;2024-03-22T08:40:56;14.00;99.90
11748;DHT22;5931;48.832;9.072;2024-03-22T08:43:22;14.00;99.90
11748;DHT22;5931;48.832;9.072;2024-03-22T08:45:51;14.00;99.90
11748;DHT22;5931;48.832;9.072;2024-03-22T08:48:17;14.10;99.90
11748;DHT22;5931;48.832;9.072;2024-03-22T08:50:44;14.10;99.90
11748;DHT22;5931;48.832;9.072;2024-03-22T08:53:10;14.30;99.90
11748;DHT22;5931;48.832;9.072;2024-03-22T08:55:36;14.40;99.90
11748;DHT22;5931;48.832;9.072;2024-03-22T08:58:03;14.40;99.90
11748;DHT22;5931;48.832;9.072;2024-03-22T09:00:29;14.60;99.90
11748;DHT22;5931;48.832;9.072;2024-03-22T09:02:55;14.70;99.90
11748;DHT22;5931;48.832;9.072;2024-03-22T09:05:21;14.90;99.90
11748;DHT22;5931;48.832;9.072;2024-03-22T09:07:47;15.10;99.90
11748;DHT22;5931;48.832;9.072;2024-03-22T09:10:14;15.20;99.90
11748;DHT22;5931;48.832;9.072;2024-03-22T09:12:39;15.30;99.90
11748;DHT22;5931;48.832;9.072;2024-03-22T09:15:06;15.40;99.90
11748;DHT22;5931;48.832;9.072;2024-03-22T09:17:32;15.70;99.90
11748;DHT22;5931;48.832;9.072;2024-03-22T09:19:59;15.70;99.90
11748;DHT22;5931;48.832;9.072;2024-03-22T09:22:24;16.00;99.90
11748;DHT22;5931;48.832;9.072;2024-03-22T09:24:50;16.20;99.90
11748;DHT22;5931;48.832;9.072;2024-03-22T09:27:16;16.50;99.90
11748;DHT22;5931;48.832;9.072;2024-03-22T09:29:42;16.50;99.90
11748;DHT22;5931;48.832;9.072;2024-03-22T09:32:09;16.70;99.90
11748;DHT22;5931;48.832;9.072;2024-03-22T09:34:35;16.90;99.90
11748;DHT22;5931;48.832;9.072;2024-03-22T09:37:01;17.00;99.90
11748;DHT22;5931;48.832;9.072;2024-03-22T09:39:27;17.20;99.90
11748;DHT22;5931;48.832;9.072;2024-03-22T09:41:57;17.40;99.90
11748;DHT22;5931;48.832;9.072;2024-03-22T09:44:23;17.60;99.90
11748;DHT22;5931;48.832;9.072;2024-03-22T09:46:50;17.70;99.90
11748;DHT22;5931;48.832;9.072;2024-03-22T09:49:17;17.60;99.90
11748;DHT22;5931;48.832;9.072;2024-03-22T09:51:44;17.70;99.90
11748;DHT22;5931;48.832;9.072;2024-03-22T09:54:10;18.20;99.90
11748;DHT22;5931;48.832;9.072;2024-03-22T09:56:38;18.60;99.90
11748;DHT22;5931;48.832;9.072;2024-03-22T09:59:05;19.10;99.90
11748;DHT22;5931;48.832;9.072;2024-03-22T10:01:33;19.10;99.90
11748;DHT22;5931;48.832;9.072;2024-03-22T10:03:59;19.30;99.90
11748;DHT22;5931;48.832;9.072;2024-03-22T10:06:25;19.30;99.90
11748;DHT22;5931;48.832;9.072;2024-03-22T10:08:51;19.30;99.90
11748;DHT22;5931;48.832;9.072;2024-03-22T10:11:17;18.80;99.90
11748;DHT22;5931;48.832;9.072;2024-03-22T10:13:44;18.40;99.90
11748;DHT22;5931;48.832;9.072;2024-03-22T10:16:12;18.70;99.90
11748;DHT22;5931;48.832;9.072;2024-03-22T10:18:37;18.70;99.90
11748;DHT22;5931;48.832;9.072;2024-03-22T10:21:04;18.80;99.90
11748;DHT22;5931;48.832;9.072;2024-03-22T10:23:30;18.70;99.90
11748;DHT22;5931;48.832;9.072;2024-03-22T10:25:57;18.70;99.90
11748;DHT22;5931;48.832;9.072;2024-03-22T10:28:24;18.70;99.90
11748;DHT22;5931;48.832;9.072;2024-03-22T10:30:51;18.60;99.90
11748;DHT22;5931;48.832;9.072;2024-03-22T10:33:22;18.20;99.90
11748;DHT22;5931;48.832;9.072;2024-03-22T10:35:52;18.20;99.90
11748;DHT22;5931;48.832;9.072;2024-03-22T10:38:19;18.40;99.90
11748;DHT22;5931;48.832;9.072;2024-03-22T10:40:46;18.30;99.90
11748;DHT22;5931;48.832;9.072;2024-03-22T10:43:15;17.90;99.90
11748;DHT22;5931;48.832;9.072;2024-03-22T10:45:42;17.90;99.90
11748;DHT22;5931;48.832;9.072;2024-03-22T10:48:11;17.60;99.90
11748;DHT22;5931;48.832;9.072;2024-03-22T10:50:42;17.50;99.90
11748;DHT22;5931;48.832;9.072;2024-03-22T10:53:18;17.60;99.90
11748;DHT22;5931;48.832;9.072;2024-03-22T10:55:47;17.80;99.90
11748;DHT22;5931;48.832;9.072;2024-03-22T10:58:16;18.00;99.90
11748;DHT22;5931;48.832;9.072;2024-03-22T11:00:44;18.20;99.90
11748;DHT22;5931;48.832;9.072;2024-03-22T11:03:10;18.30;99.90
11748;DHT22;5931;48.832;9.072;2024-03-22T11:05:49;18.40;99.90
11748;DHT22;5931;48.832;9.072;2024-03-22T11:08:26;18.70;99.90
11748;DHT22;5931;48.832;9.072;2024-03-22T11:10:53;18.40;99.90
11748;DHT22;5931;48.832;9.072;2024-03-22T11:13:21;18.10;99.90
11748;DHT22;5931;48.832;9.072;2024-03-22T11:15:50;18.00;99.90
11748;DHT22;5931;48.832;9.072;2024-03-22T11:18:20;18.30;99.90
11748;DHT22;5931;48.832;9.072;2024-03-22T11:20:45;18.60;99.90
11748;DHT22;5931;48.832;9.072;2024-03-22T11:23:13;19.20;99.90
11748;DHT22;5931;48.832;9.072;2024-03-22T11:25:39;19.30;99.90
11748;DHT22;5931;48.832;9.072;2024-03-22T11:28:05;19.70;99.90
11748;DHT22;5931;48.832;9.072;2024-03-22T11:30:32;20.10;99.90
11748;DHT22;5931;48.832;9.072;2024-03-22T11:33:01;20.20;99.90
11748;DHT22;5931;48.832;9.072;2024-03-22T11:35:27;20.50;99.90
11748;DHT22;5931;48.832;9.072;2024-03-22T11:37:53;20.70;99.90
11748;DHT22;5931;48.832;9.072;2024-03-22T11:40:19;20.80;99.90
11748;DHT22;5931;48.832;9.072;2024-03-22T11:42:48;21.00;99.90
11748;DHT22;5931;48.832;9.072;2024-03-22T11:45:16;21.00;99.90
11748;DHT22;5931;48.832;9.072;2024-03-22T11:47:44;21.20;99.90
11748;DHT22;5931;48.832;9.072;2024-03-22T11:50:12;21.20;99.90
11748;DHT22;5931;48.832;9.072;2024-03-22T11:52:41;21.20;99.90
11748;DHT22;5931;48.832;9.072;2024-03-22T11:55:07;21.70;99.90
11748;DHT22;5931;48.832;9.072;2024-03-22T11:57:33;22.10;99.90
11748;DHT22;5931;48.832;9.072;2024-03-22T12:00:01;21.80;99.90
11748;DHT22;5931;48.832;9.072;2024-03-22T12:02:38;22.00;99.90
11748;DHT22;5931;48.832;9.072;2024-03-22T12:05:07;22.30;99.90
11748;DHT22;5931;48.832;9.072;2024-03-22T12:07:34;21.60;99.90
11748;DHT22;5931;48.832;9.072;2024-03-22T12:10:00;21.00;99.90
11748;DHT22;5931;48.832;9.072;2024-03-22T12:12:25;21.30;99.90
11748;DHT22;5931;48.832;9.072;2024-03-22T12:14:52;21.40;99.90
11748;DHT22;5931;48.832;9.072;2024-03-22T12:17:18;21.20;99.90
11748;DHT22;5931;48.832;9.072;2024-03-22T12:19:44;21.50;99.90
11748;DHT22;5931;48.832;9.072;2024-03-22T12:22:10;21.50;99.90
11748;DHT22;5931;48.832;9.072;2024-03-22T12:24:36;21.70;99.90
11748;DHT22;5931;48.832;9.072;2024-03-22T12:27:02;21.90;99.90
11748;DHT22;5931;48.832;9.072;2024-03-22T12:29:28;21.80;99.90
11748;DHT22;5931;48.832;9.072;2024-03-22T12:31:54;22.20;99.90
11748;DHT22;5931;48.832;9.072;2024-03-22T12:34:20;22.30;99.90
11748;DHT22;5931;48.832;9.072;2024-03-22T12:36:46;22.00;99.90
11748;DHT22;5931;48.832;9.072;2024-03-22T12:39:12;21.60;99.90
11748;DHT22;5931;48.832;9.072;2024-03-22T12:41:38;21.40;99.90
11748;DHT22;5931;48.832;9.072;2024-03-22T12:44:03;21.60;99.90
11748;DHT22;5931;48.832;9.072;2024-03-22T12:46:29;21.70;99.90
11748;DHT22;5931;48.832;9.072;2024-03-22T12:48:55;21.20;99.90
11748;DHT22;5931;48.832;9.072;2024-03-22T12:51:21;20.80;99.90
11748;DHT22;5931;48.832;9.072;2024-03-22T12:53:47;20.80;99.90
11748;DHT22;5931;48.832;9.072;2024-03-22T12:56:13;21.00;99.90
11748;DHT22;5931;48.832;9.072;2024-03-22T12:58:39;20.70;99.90
11748;DHT22;5931;48.832;9.072;2024-03-22T13:01:05;20.10;99.90
11748;DHT22;5931;48.832;9.072;2024-03-22T13:03:34;20.20;99.90
11748;DHT22;5931;48.832;9.072;2024-03-22T13:06:00;20.40;99.90
11748;DHT22;5931;48.832;9.072;2024-03-22T13:08:26;21.00;99.90
11748;DHT22;5931;48.832;9.072;2024-03-22T13:10:51;21.10;99.90
11748;DHT22;5931;48.832;9.072;2024-03-22T13:13:18;21.30;99.90
11748;DHT22;5931;48.832;9.072;2024-03-22T13:15:44;21.20;99.90
11748;DHT22;5931;48.832;9.072;2024-03-22T13:18:09;21.10;99.90
11748;DHT22;5931;48.832;9.072;2024-03-22T13:20:35;21.30;99.90
11748;DHT22;5931;48.832;9.072;2024-03-22T13:23:02;21.40;99.90
11748;DHT22;5931;48.832;9.072;2024-03-22T13:25:28;21.10;99.90
11748;DHT22;5931;48.832;9.072;2024-03-22T13:27:56;21.30;99.90
11748;DHT22;5931;48.832;9.072;2024-03-22T13:30:22;21.60;99.90
11748;DHT22;5931;48.832;9.072;2024-03-22T13:32:48;22.00;99.90
11748;DHT22;5931;48.832;9.072;2024-03-22T13:35:13;21.80;99.90
11748;DHT22;5931;48.832;9.072;2024-03-22T13:37:40;21.60;99.90
11748;DHT22;5931;48.832;9.072;2024-03-22T13:40:07;21.40;99.90
11748;DHT22;5931;48.832;9.072;2024-03-22T13:42:33;21.60;99.90
11748;DHT22;5931;48.832;9.072;2024-03-22T13:44:59;21.30;99.90
11748;DHT22;5931;48.832;9.072;2024-03-22T13:47:25;21.00;99.90
11748;DHT22;5931;48.832;9.072;2024-03-22T13:49:52;20.80;99.90
11748;DHT22;5931;48.832;9.072;2024-03-22T13:52:18;20.30;99.90
11748;DHT22;5931;48.832;9.072;2024-03-22T13:54:43;20.20;99.90
11748;DHT22;5931;48.832;9.072;2024-03-22T13:57:09;20.20;99.90
11748;DHT22;5931;48.832;9.072;2024-03-22T13:59:35;19.90;99.90
11748;DHT22;5931;48.832;9.072;2024-03-22T14:02:02;20.10;99.90
11748;DHT22;5931;48.832;9.072;2024-03-22T14:04:28;19.90;99.90
11748;DHT22;5931;48.832;9.072;2024-03-22T14:06:55;19.80;99.90
11748;DHT22;5931;48.832;9.072;2024-03-22T14:09:20;19.70;99.90
11748;DHT22;5931;48.832;9.072;2024-03-22T14:11:46;19.70;99.90
11748;DHT22;5931;48.832;9.072;2024-03-22T14:14:14;19.30;99.90
11748;DHT22;5931;48.832;9.072;2024-03-22T14:16:40;19.10;99.90
11748;DHT22;5931;48.832;9.072;2024-03-22T14:19:09;18.90;99.90
11748;DHT22;5931;48.832;9.072;2024-03-22T14:21:35;18.80;99.90
11748;DHT22;5931;48.832;9.072;2024-03-22T14:24:01;18.60;99.90
11748;DHT22;5931;48.832;9.072;2024-03-22T14:26:28;18.50;99.90
11748;DHT22;5931;48.832;9.072;2024-03-22T14:28:54;18.50;99.90
11748;DHT22;5931;48.832;9.072;2024-03-22T14:31:20;18.50;99.90
11748;DHT22;5931;48.832;9.072;2024-03-22T14:33:46;18.80;99.90
11748;DHT22;5931;48.832;9.072;2024-03-22T14:36:12;18.90;99.90
11748;DHT22;5931;48.832;9.072;2024-03-22T14:38:38;18.90;99.90
11748;DHT22;5931;48.832;9.072;2024-03-22T14:41:05;19.00;99.90
11748;DHT22;5931;48.832;9.072;2024-03-22T14:43:31;19.20;99.90
11748;DHT22;5931;48.832;9.072;2024-03-22T14:46:00;19.20;99.90
11748;DHT22;5931;48.832;9.072;2024-03-22T14:48:31;18.90;99.90
11748;DHT22;5931;48.832;9.072;2024-03-22T14:50:57;19.00;99.90
11748;DHT22;5931;48.832;9.072;2024-03-22T14:53:22;19.10;99.90
11748;DHT22;5931;48.832;9.072;2024-03-22T14:55:59;18.60;99.90
11748;DHT22;5931;48.832;9.072;2024-03-22T14:58:28;18.70;99.90
11748;DHT22;5931;48.832;9.072;2024-03-22T15:00:54;18.70;99.90
11748;DHT22;5931;48.832;9.072;2024-03-22T15:03:21;18.50;99.90
11748;DHT22;5931;48.832;9.072;2024-03-22T15:05:51;18.40;99.90
11748;DHT22;5931;48.832;9.072;2024-03-22T15:08:19;18.40;99.90
11748;DHT22;5931;48.832;9.072;2024-03-22T15:10:46;18.30;99.90
11748;DHT22;5931;48.832;9.072;2024-03-22T15:13:12;18.20;99.90
11748;DHT22;5931;48.832;9.072;2024-03-22T15:15:41;18.10;99.90
11748;DHT22;5931;48.832;9.072;2024-03-22T15:18:07;18.00;99.90
11748;DHT22;5931;48.832;9.072;2024-03-22T15:20:34;17.90;99.90
11748;DHT22;5931;48.832;9.072;2024-03-22T15:23:00;17.80;99.90
11748;DHT22;5931;48.832;9.072;2024-03-22T15:25:26;17.70;99.90
11748;DHT22;5931;48.832;9.072;2024-03-22T15:27:52;17.70;99.90
11748;DHT22;5931;48.832;9.072;2024-03-22T15:30:18;17.60;99.90
11748;DHT22;5931;48.832;9.072;2024-03-22T15:32:45;17.70;99.90
11748;DHT22;5931;48.832;9.072;2024-03-22T15:35:11;17.70;99.90
11748;DHT22;5931;48.832;9.072;2024-03-22T15:37:39;17.60;99.90
11748;DHT22;5931;48.832;9.072;2024-03-22T15:40:06;17.50;99.90
11748;DHT22;5931;48.832;9.072;2024-03-22T15:42:33;17.70;99.90
11748;DHT22;5931;48.832;9.072;2024-03-22T15:44:58;17.60;99.90
11748;DHT22;5931;48.832;9.072;2024-03-22T15:47:29;17.60;99.90
11748;DHT22;5931;48.832;9.072;2024-03-22T15:49:55;17.50;99.90